createdAt,value
2023-04-13T00:00:35.168Z,99586.47
2023-04-13T00:03:04.361Z,99587.94
2023-04-13T00:05:34.379Z,99596.38
2023-04-13T00:08:03.475Z,99587.44
2023-04-13T00:10:36.162Z,99581.94
2023-04-13T00:13:06.614Z,99583.38
2023-04-13T00:15:38.133Z,99570.25
2023-04-13T00:18:06.792Z,99571.41
2023-04-13T00:20:35.242Z,99566.41
2023-04-13T00:23:04.053Z,99562.16
2023-04-13T00:25:32.584Z,99567.53
2023-04-13T00:28:03.407Z,99551.75
2023-04-13T00:30:33.432Z,99562.16
2023-04-13T00:33:03.817Z,99560.59
2023-04-13T00:35:32.336Z,99549.84
2023-04-13T00:38:00.626Z,99547.91
2023-04-13T00:40:30.191Z,99549.47
2023-04-13T00:43:00.596Z,99550.25
2023-04-13T00:45:29.370Z,99546.41
2023-04-13T00:48:00.091Z,99531.81
2023-04-13T00:50:28.613Z,99535.34
2023-04-13T00:52:57.933Z,99533.06
2023-04-13T00:55:27.763Z,99533.50
2023-04-13T00:57:56.172Z,99541.22
2023-04-13T01:00:25.767Z,99539.75
2023-04-13T01:02:54.984Z,99533.63
2023-04-13T01:05:25.736Z,99536.38
2023-04-13T01:08:09.709Z,99521.41
2023-04-13T01:10:45.904Z,99549.94
2023-04-13T01:13:21.338Z,99522.28
2023-04-13T01:16:02.504Z,99514.63
2023-04-13T01:18:31.974Z,99512.75
2023-04-13T01:21:04.590Z,99515.88
2023-04-13T01:23:52.331Z,99517.00
2023-04-13T01:26:22.589Z,99507.34
2023-04-13T01:28:53.064Z,99515.03
2023-04-13T01:31:22.503Z,99531.53
2023-04-13T01:33:51.414Z,99538.06
2023-04-13T01:36:20.123Z,99520.34
2023-04-13T01:38:49.000Z,99537.31
2023-04-13T01:41:17.240Z,99538.44
2023-04-13T01:43:46.809Z,99544.56
2023-04-13T01:46:16.446Z,99529.22
2023-04-13T01:48:50.593Z,99540.00
2023-04-13T01:51:21.708Z,99541.53
2023-04-13T01:53:54.500Z,99533.06
2023-04-13T01:56:23.942Z,99528.41
2023-04-13T01:58:58.196Z,99546.94
2023-04-13T02:01:28.363Z,99526.94
2023-04-13T02:03:57.119Z,99531.94
2023-04-13T02:06:25.978Z,99535.41
2023-04-13T02:08:54.850Z,99537.75
2023-04-13T02:11:23.177Z,99541.66
2023-04-13T02:13:51.462Z,99531.66
2023-04-13T02:16:19.777Z,99542.81
2023-04-13T02:18:49.477Z,99547.84
2023-04-13T02:21:18.019Z,99553.22
2023-04-13T02:23:46.739Z,99544.03
2023-04-13T02:26:16.385Z,99549.41
2023-04-13T02:28:45.580Z,99538.63
2023-04-13T02:31:16.952Z,99539.41
2023-04-13T02:33:46.446Z,99550.97
2023-04-13T02:36:17.454Z,99543.66
2023-04-13T02:38:45.776Z,99561.72
2023-04-13T02:41:14.005Z,99562.88
2023-04-13T02:43:42.272Z,99565.50
2023-04-13T02:46:10.509Z,99568.50
2023-04-13T02:48:38.753Z,99573.09
2023-04-13T02:51:07.791Z,99565.31
2023-04-13T02:53:37.505Z,99569.50
2023-04-13T02:56:06.822Z,99576.81
2023-04-13T02:58:35.027Z,99587.56
2023-04-13T03:01:03.462Z,99591.84
2023-04-13T03:03:31.658Z,99582.97
2023-04-13T03:06:01.517Z,99585.66
2023-04-13T03:08:29.812Z,99585.66
2023-04-13T03:10:59.557Z,99594.16
2023-04-13T03:13:27.770Z,99602.25
2023-04-13T03:15:56.044Z,99614.50
2023-04-13T03:18:24.634Z,99606.78
2023-04-13T03:20:53.378Z,99605.22
2023-04-13T03:23:21.608Z,99612.47
2023-04-13T03:25:49.797Z,99617.47
2023-04-13T03:28:20.056Z,99618.97
2023-04-13T03:30:48.255Z,99614.34
2023-04-13T03:33:16.678Z,99624.34
2023-04-13T03:35:44.879Z,99622.75
2023-04-13T03:38:13.153Z,99639.72
2023-04-13T03:40:41.314Z,99641.28
2023-04-13T03:43:10.172Z,99652.03
2023-04-13T03:45:39.807Z,99646.66
2023-04-13T03:48:08.575Z,99654.28
2023-04-13T03:50:37.035Z,99661.25
2023-04-13T03:53:05.616Z,99652.72
2023-04-13T03:55:33.888Z,99660.03
2023-04-13T03:58:02.844Z,99665.84
2023-04-13T04:00:31.216Z,99662.81
2023-04-13T04:03:00.904Z,99670.53
2023-04-13T04:05:29.230Z,99674.00
2023-04-13T04:07:57.502Z,99675.13
2023-04-13T04:10:25.909Z,99681.72
2023-04-13T04:12:54.388Z,99683.25
2023-04-13T04:15:22.555Z,99692.53
2023-04-13T04:17:51.327Z,99700.59
2023-04-13T04:20:21.156Z,99702.16
2023-04-13T04:22:53.469Z,99707.19
2023-04-13T04:25:22.990Z,99701.03
2023-04-13T04:27:52.715Z,99713.34
2023-04-13T04:30:22.286Z,99714.50
2023-04-13T04:32:52.931Z,99721.00
2023-04-13T04:35:26.109Z,99716.75
2023-04-13T04:37:55.292Z,99721.41
2023-04-13T04:40:23.621Z,99734.09
2023-04-13T04:42:52.025Z,99739.47
2023-04-13T04:45:20.735Z,99751.03
2023-04-13T04:47:50.333Z,99744.84
2023-04-13T04:50:18.881Z,99748.25
2023-04-13T04:52:48.442Z,99751.72
2023-04-13T04:55:16.718Z,99761.72
2023-04-13T04:57:45.962Z,99765.53
2023-04-13T05:00:16.893Z,99770.91
2023-04-13T05:02:46.598Z,99784.38
2023-04-13T05:05:15.194Z,99782.03
2023-04-13T05:07:45.068Z,99773.97
2023-04-13T05:10:14.950Z,99775.16
2023-04-13T05:12:43.304Z,99781.69
2023-04-13T05:15:12.535Z,99796.34
2023-04-13T05:17:41.800Z,99790.63
2023-04-13T05:20:11.216Z,99798.75
2023-04-13T05:22:40.728Z,99803.44
2023-04-13T05:25:10.289Z,99805.41
2023-04-13T05:27:39.862Z,99812.34
2023-04-13T05:30:10.631Z,99818.16
2023-04-13T05:32:39.269Z,99822.41
2023-04-13T05:35:10.248Z,99827.78
2023-04-13T05:37:39.938Z,99830.91
2023-04-13T05:40:13.596Z,99835.94
2023-04-13T05:42:44.140Z,99841.75
2023-04-13T05:45:13.190Z,99847.16
2023-04-13T05:47:41.465Z,99847.94
2023-04-13T05:50:11.196Z,99852.97
2023-04-13T05:52:39.424Z,99854.91
2023-04-13T05:55:08.476Z,99859.19
2023-04-13T05:57:36.804Z,99871.50
2023-04-13T06:00:10.380Z,99871.06
2023-04-13T06:02:40.526Z,99869.97
2023-04-13T06:05:10.362Z,99879.59
2023-04-13T06:07:38.657Z,99872.28
2023-04-13T06:10:08.658Z,99873.84
2023-04-13T06:12:36.925Z,99881.63
2023-04-13T06:15:08.465Z,99890.50
2023-04-13T06:17:37.046Z,99894.38
2023-04-13T06:20:07.794Z,99900.63
2023-04-13T06:22:36.415Z,99895.31
2023-04-13T06:25:05.224Z,99906.91
2023-04-13T06:27:33.890Z,99910.47
2023-04-13T06:30:02.587Z,99920.25
2023-04-13T06:32:32.385Z,99928.03
2023-04-13T06:35:00.764Z,99930.44
2023-04-13T06:37:29.058Z,99935.84
2023-04-13T06:39:57.685Z,99935.88
2023-04-13T06:42:26.115Z,99935.16
2023-04-13T06:44:54.353Z,99946.38
2023-04-13T06:47:22.620Z,99947.16
2023-04-13T06:49:52.305Z,99933.66
2023-04-13T06:52:20.924Z,99949.06
2023-04-13T06:54:49.243Z,99956.78
2023-04-13T06:57:18.841Z,99944.88
2023-04-13T06:59:47.521Z,99951.06
2023-04-13T07:02:15.868Z,99953.78
2023-04-13T07:04:44.349Z,99950.41
2023-04-13T07:07:14.237Z,99958.91
2023-04-13T07:09:42.744Z,99957.78
2023-04-13T07:12:11.223Z,99955.84
2023-04-13T07:14:41.735Z,99963.22
2023-04-13T07:17:12.786Z,99974.06
2023-04-13T07:19:47.878Z,99971.06
2023-04-13T07:22:17.816Z,99973.84
2023-04-13T07:24:46.419Z,99980.84
2023-04-13T07:27:14.734Z,99984.38
2023-04-13T07:29:43.035Z,99984.78
2023-04-13T07:32:11.590Z,99983.34
2023-04-13T07:34:39.938Z,99990.00
2023-04-13T07:37:08.224Z,99992.31
2023-04-13T07:39:37.888Z,100000.50
2023-04-13T07:42:06.372Z,100010.91
2023-04-13T07:44:34.996Z,100007.84
2023-04-13T07:47:03.569Z,100012.53
2023-04-13T07:49:31.913Z,100024.09
2023-04-13T07:52:00.719Z,100030.28
2023-04-13T07:54:28.971Z,100023.75
2023-04-13T07:56:58.746Z,100031.84
2023-04-13T07:59:27.041Z,100043.09
2023-04-13T08:01:55.610Z,100058.56
2023-04-13T08:04:24.076Z,100048.13
2023-04-13T08:06:52.512Z,100061.31
2023-04-13T08:09:20.803Z,100061.34
2023-04-13T08:11:49.615Z,100067.16
2023-04-13T08:14:19.242Z,100066.44
2023-04-13T08:16:47.648Z,100071.13
2023-04-13T08:19:16.266Z,100070.03
2023-04-13T08:21:44.587Z,100060.84
2023-04-13T08:24:12.945Z,100068.28
2023-04-13T08:26:41.378Z,100077.69
2023-04-13T08:29:10.404Z,100073.19
2023-04-13T08:31:40.735Z,100079.44
2023-04-13T08:34:10.423Z,100086.63
2023-04-13T08:36:38.966Z,100082.97
2023-04-13T08:39:09.865Z,100090.50
2023-04-13T08:41:41.169Z,100087.63
2023-04-13T08:44:10.166Z,100098.28
2023-04-13T08:46:41.233Z,100095.00
2023-04-13T08:49:10.576Z,100105.13
2023-04-13T08:51:42.015Z,100101.34
2023-04-13T08:54:11.981Z,100099.88
2023-04-13T08:56:46.297Z,100111.44
2023-04-13T08:59:16.441Z,100115.72
2023-04-13T09:01:48.948Z,100118.75
2023-04-13T09:04:19.068Z,100128.75
2023-04-13T09:06:51.129Z,100131.81
2023-04-13T09:09:20.480Z,100132.91
2023-04-13T09:11:51.011Z,100143.72
2023-04-13T09:14:20.678Z,100147.16
2023-04-13T09:16:50.869Z,100152.91
2023-04-13T09:19:30.088Z,100148.97
2023-04-13T09:21:58.702Z,100151.28
2023-04-13T09:24:27.327Z,100167.50
2023-04-13T09:26:55.647Z,100169.75
2023-04-13T09:29:23.980Z,100175.53
2023-04-13T09:31:53.579Z,100174.00
2023-04-13T09:34:29.700Z,100167.06
2023-04-13T09:37:01.118Z,100174.03
2023-04-13T09:39:30.233Z,100174.84
2023-04-13T09:41:59.427Z,100176.88
2023-04-13T09:44:31.075Z,100180.94
2023-04-13T09:47:02.091Z,100186.09
2023-04-13T09:49:38.764Z,100192.03
2023-04-13T09:52:08.266Z,100192.06
2023-04-13T09:54:37.166Z,100196.66
2023-04-13T09:57:05.904Z,100197.78
2023-04-13T09:59:34.468Z,100206.69
2023-04-13T10:02:05.831Z,100219.44
2023-04-13T10:04:36.921Z,100212.81
2023-04-13T10:07:06.914Z,100212.09
2023-04-13T10:09:35.162Z,100216.75
2023-04-13T10:12:05.112Z,100221.44
2023-04-13T10:14:37.331Z,100220.78
2023-04-13T10:17:25.370Z,100221.56
2023-04-13T10:19:55.971Z,100230.06
2023-04-13T10:22:24.568Z,100225.81
2023-04-13T10:24:53.879Z,100234.41
2023-04-13T10:27:23.643Z,100229.41
2023-04-13T10:29:51.898Z,100238.38
2023-04-13T10:32:26.857Z,100240.44
2023-04-13T10:34:56.258Z,100247.03
2023-04-13T10:37:29.839Z,100251.72
2023-04-13T10:40:07.783Z,100234.28
2023-04-13T10:45:21.387Z,100251.00
2023-04-13T10:47:51.529Z,100258.34
2023-04-13T10:50:20.929Z,100259.91
2023-04-13T10:53:10.556Z,100258.41
2023-04-13T10:55:38.910Z,100263.94
2023-04-13T10:58:17.475Z,100264.75
2023-04-13T11:00:47.379Z,100270.19
2023-04-13T11:03:19.099Z,100259.69
2023-04-13T11:05:48.591Z,100267.47
2023-04-13T11:08:21.222Z,100277.22
2023-04-13T11:10:54.395Z,100273.41
2023-04-13T11:13:25.116Z,100280.41
2023-04-13T11:16:01.322Z,100276.59
2023-04-13T11:18:30.988Z,100280.53
2023-04-13T11:20:59.269Z,100286.84
2023-04-13T11:23:27.504Z,100285.31
2023-04-13T11:25:58.517Z,100292.34
2023-04-13T11:28:37.851Z,100296.97
2023-04-13T11:31:07.503Z,100300.50
2023-04-13T11:33:39.920Z,100296.19
2023-04-13T11:36:11.763Z,100298.91
2023-04-13T11:38:42.088Z,100305.09
2023-04-13T11:43:42.648Z,100315.28
2023-04-13T11:46:13.671Z,100297.13
2023-04-13T11:48:43.633Z,100309.19
2023-04-13T11:51:12.608Z,100302.69
2023-04-13T11:53:41.515Z,100317.84
2023-04-13T11:56:10.668Z,100311.19
2023-04-13T11:58:40.540Z,100308.13
2023-04-13T12:01:14.344Z,100320.16
2023-04-13T12:06:22.191Z,100315.13
2023-04-13T12:08:55.683Z,100320.94
2023-04-13T12:11:41.560Z,100317.41
2023-04-13T12:17:06.281Z,100299.91
2023-04-13T12:19:43.764Z,100313.16
2023-04-13T12:22:13.743Z,100323.97
2023-04-13T12:24:43.227Z,100311.88
2023-04-13T12:29:42.771Z,100318.94
2023-04-13T12:32:14.260Z,100319.75
2023-04-13T12:34:44.959Z,100325.94
2023-04-13T12:37:13.638Z,100325.94
2023-04-13T12:39:43.504Z,100332.56
2023-04-13T12:42:12.218Z,100328.69
2023-04-13T12:44:40.537Z,100332.19
2023-04-13T12:47:08.813Z,100329.84
2023-04-13T12:49:37.162Z,100332.56
2023-04-13T12:52:07.053Z,100324.41
2023-04-13T12:54:35.423Z,100334.53
2023-04-13T12:57:03.851Z,100338.00
2023-04-13T12:59:32.062Z,100337.63
2023-04-13T13:02:00.377Z,100338.44
2023-04-13T13:04:30.718Z,100338.00
2023-04-13T13:06:59.794Z,100338.41
2023-04-13T13:09:29.530Z,100339.56
2023-04-13T13:11:58.248Z,100332.16
2023-04-13T13:14:26.619Z,100349.25
2023-04-13T13:16:55.128Z,100339.47
2023-04-13T13:19:23.514Z,100344.06
2023-04-13T13:21:51.854Z,100346.75
2023-04-13T13:24:20.121Z,100338.19
2023-04-13T13:27:12.141Z,100355.28
2023-04-13T13:29:38.098Z,100352.84
2023-04-13T13:32:07.222Z,100348.47
2023-04-13T13:34:35.644Z,100363.66
2023-04-13T13:37:04.596Z,100360.63
2023-04-13T13:39:32.920Z,100360.63
2023-04-13T13:42:03.466Z,100368.34
2023-04-13T13:44:32.620Z,100363.63
2023-04-13T13:47:02.187Z,100371.38
2023-04-13T13:49:30.501Z,100371.81
2023-04-13T13:51:59.400Z,100370.66
2023-04-13T13:54:27.778Z,100369.13
2023-04-13T13:56:56.185Z,100371.06
2023-04-13T13:59:25.860Z,100360.91
2023-04-13T14:01:54.210Z,100369.47
2023-04-13T14:04:22.540Z,100372.94
2023-04-13T14:06:50.803Z,100367.06
2023-04-13T14:09:19.954Z,100369.41
2023-04-13T14:11:48.441Z,100371.38
2023-04-13T14:14:21.753Z,100368.34
2023-04-13T14:16:52.103Z,100378.88
2023-04-13T14:19:22.044Z,100386.66
2023-04-13T14:21:50.484Z,100382.00
2023-04-13T14:24:18.790Z,100397.59
2023-04-13T14:26:47.114Z,100391.00
2023-04-13T14:29:15.407Z,100401.94
2023-04-13T14:31:43.934Z,100394.97
2023-04-13T14:34:13.708Z,100393.78
2023-04-13T14:36:42.333Z,100398.81
2023-04-13T14:39:10.664Z,100396.50
2023-04-13T14:41:38.940Z,100396.09
2023-04-13T14:44:07.735Z,100391.84
2023-04-13T14:46:35.976Z,100395.75
2023-04-13T14:49:04.225Z,100408.63
2023-04-13T14:51:34.436Z,100413.31
2023-04-13T14:54:02.733Z,100409.47
2023-04-13T14:56:31.063Z,100407.09
2023-04-13T14:58:59.736Z,100397.72
2023-04-13T15:01:28.333Z,100409.41
2023-04-13T15:03:56.702Z,100417.19
2023-04-13T15:06:27.575Z,100410.97
2023-04-13T15:08:57.236Z,100411.41
2023-04-13T15:11:25.725Z,100412.19
2023-04-13T15:13:54.194Z,100414.91
2023-04-13T15:16:22.411Z,100421.50
2023-04-13T15:18:50.697Z,100421.13
2023-04-13T15:21:19.004Z,100418.41
2023-04-13T15:23:47.296Z,100413.75
2023-04-13T15:26:19.467Z,100407.50
2023-04-13T15:28:48.054Z,100416.81
2023-04-13T15:31:16.304Z,100413.34
2023-04-13T15:33:44.587Z,100428.47
2023-04-13T15:36:15.802Z,100422.66
2023-04-13T15:38:44.090Z,100419.53
2023-04-13T15:41:12.582Z,100430.44
2023-04-13T15:43:44.032Z,100424.59
2023-04-13T15:46:12.482Z,100428.09
2023-04-13T15:48:40.809Z,100433.97
2023-04-13T15:51:09.341Z,100428.53
2023-04-13T15:53:37.644Z,100440.16
2023-04-13T15:56:10.052Z,100435.50
2023-04-13T15:58:38.561Z,100437.06
2023-04-13T16:01:11.075Z,100431.63
2023-04-13T16:03:41.055Z,100440.63
2023-04-13T16:06:10.702Z,100444.53
2023-04-13T16:08:40.138Z,100437.91
2023-04-13T16:11:08.413Z,100444.16
2023-04-13T16:16:14.948Z,100431.31
2023-04-13T16:18:43.324Z,100439.88
2023-04-13T16:21:12.496Z,100440.25
2023-04-13T16:23:40.969Z,100437.16
2023-04-13T16:26:09.257Z,100436.38
2023-04-13T16:28:38.053Z,100445.72
2023-04-13T16:31:11.817Z,100443.38
2023-04-13T16:33:40.095Z,100450.38
2023-04-13T16:36:09.684Z,100456.19
2023-04-13T16:38:39.799Z,100455.06
2023-04-13T16:41:08.006Z,100451.53
2023-04-13T16:43:36.283Z,100460.47
2023-04-13T16:46:05.570Z,100454.66
2023-04-13T16:48:35.298Z,100457.75
2023-04-13T16:51:04.918Z,100465.53
2023-04-13T16:53:33.270Z,100470.56
2023-04-13T16:56:01.522Z,100470.16
2023-04-13T16:58:29.801Z,100473.69
2023-04-13T17:00:58.176Z,100480.25
2023-04-13T17:03:26.571Z,100482.19
2023-04-13T17:05:56.590Z,100484.53
2023-04-13T17:08:25.624Z,100490.75
2023-04-13T17:10:54.399Z,100492.66
2023-04-13T17:13:22.673Z,100490.75
2023-04-13T17:15:51.354Z,100498.09
2023-04-13T17:18:19.617Z,100498.44
2023-04-13T17:20:56.365Z,100496.91
2023-04-13T17:23:24.781Z,100506.25
2023-04-13T17:25:54.316Z,100499.59
2023-04-13T17:28:24.885Z,100508.16
2023-04-13T17:30:53.284Z,100506.16
2023-04-13T17:33:22.049Z,100510.03
2023-04-13T17:35:55.740Z,100510.41
2023-04-13T17:38:24.131Z,100511.56
2023-04-13T17:40:52.610Z,100520.84
2023-04-13T17:43:20.861Z,100522.34
2023-04-13T17:45:49.213Z,100533.59
2023-04-13T17:48:17.493Z,100531.25
2023-04-13T17:50:45.963Z,100530.03
2023-04-13T17:53:15.591Z,100537.03
2023-04-13T17:55:43.933Z,100544.75
2023-04-13T17:58:12.742Z,100541.66
2023-04-13T18:00:41.020Z,100550.16
2023-04-13T18:03:11.016Z,100551.66
2023-04-13T18:05:44.727Z,100560.97
2023-04-13T18:08:13.049Z,100563.25
2023-04-13T18:10:43.891Z,100567.47
2023-04-13T18:13:12.641Z,100575.56
2023-04-13T18:15:40.964Z,100578.59
2023-04-13T18:18:09.344Z,100585.91
2023-04-13T18:20:37.606Z,100580.06
2023-04-13T18:23:06.111Z,100596.72
2023-04-13T18:25:34.457Z,100598.56
2023-04-13T18:28:04.211Z,100607.44
2023-04-13T18:30:32.528Z,100613.13
2023-04-13T18:33:00.890Z,100619.63
2023-04-13T18:35:29.707Z,100610.97
2023-04-13T18:37:58.018Z,100616.31
2023-04-13T18:40:26.453Z,100615.06
2023-04-13T18:42:54.698Z,100616.97
2023-04-13T18:45:24.328Z,100635.91
2023-04-13T18:47:52.711Z,100626.91
2023-04-13T18:50:21.431Z,100643.53
2023-04-13T18:52:49.737Z,100633.66
2023-04-13T18:55:18.308Z,100634.00
2023-04-13T18:57:46.546Z,100641.66
2023-04-13T19:00:16.471Z,100650.88
2023-04-13T19:02:48.787Z,100644.97
2023-04-13T19:05:18.074Z,100652.22
2023-04-13T19:07:58.530Z,100649.00
2023-04-13T19:10:28.023Z,100651.16
2023-04-13T19:12:56.948Z,100660.22
2023-04-13T19:15:25.617Z,100663.19
2023-04-13T19:17:55.448Z,100670.44
2023-04-13T19:20:25.442Z,100664.13
2023-04-13T19:22:53.701Z,100666.34
2023-04-13T19:25:22.468Z,100675.13
2023-04-13T19:27:51.053Z,100676.53
2023-04-13T19:30:19.992Z,100687.69
2023-04-13T19:32:50.233Z,100682.19
2023-04-13T19:35:22.125Z,100694.84
2023-04-13T19:37:50.395Z,100680.03
2023-04-13T19:40:18.866Z,100686.09
2023-04-13T19:42:48.375Z,100688.31
2023-04-13T19:45:17.016Z,100688.94
2023-04-13T19:47:45.481Z,100694.66
2023-04-13T19:50:15.765Z,100697.22
2023-04-13T19:52:47.415Z,100701.66
2023-04-13T19:55:16.072Z,100715.38
2023-04-13T19:57:53.532Z,100712.88
2023-04-13T20:00:22.478Z,100710.34
2023-04-13T20:02:53.055Z,100722.53
2023-04-13T20:05:22.408Z,100726.22
2023-04-13T20:07:52.036Z,100717.22
2023-04-13T20:10:20.343Z,100720.56
2023-04-13T20:12:48.699Z,100718.44
2023-04-13T20:15:17.115Z,100730.31
2023-04-13T20:17:47.835Z,100728.63
2023-04-13T20:20:17.952Z,100735.09
2023-04-13T20:22:46.266Z,100736.88
2023-04-13T20:25:16.004Z,100744.16
2023-04-13T20:27:45.726Z,100742.13
2023-04-13T20:30:14.639Z,100749.00
2023-04-13T20:32:43.007Z,100747.81
2023-04-13T20:35:11.615Z,100738.78
2023-04-13T20:37:39.897Z,100742.19
2023-04-13T20:40:11.268Z,100745.59
2023-04-13T20:42:42.101Z,100757.06
2023-04-13T20:45:14.763Z,100751.59
2023-04-13T20:47:43.312Z,100752.25
2023-04-13T20:50:12.878Z,100756.75
2023-04-13T20:52:41.987Z,100751.28
2023-04-13T20:55:11.721Z,100750.41
2023-04-13T20:57:42.244Z,100765.00
2023-04-13T21:00:15.736Z,100761.78
2023-04-13T21:02:45.194Z,100759.31
2023-04-13T21:05:13.993Z,100751.47
2023-04-13T21:07:42.596Z,100757.50
2023-04-13T21:10:12.163Z,100769.81
2023-04-13T21:12:41.804Z,100766.19
2023-04-13T21:15:11.380Z,100766.47
2023-04-13T21:17:40.562Z,100779.38
2023-04-13T21:20:10.709Z,100781.19
2023-04-13T21:22:38.912Z,100783.78
2023-04-13T21:25:08.171Z,100787.59
2023-04-13T21:27:36.423Z,100794.44
2023-04-13T21:30:07.829Z,100792.09
2023-04-13T21:32:36.222Z,100787.84
2023-04-13T21:35:04.880Z,100790.41
2023-04-13T21:37:33.261Z,100800.41
2023-04-13T21:40:01.644Z,100787.28
2023-04-13T21:42:29.935Z,100799.50
2023-04-13T21:44:58.258Z,100796.38
2023-04-13T21:47:27.982Z,100800.19
2023-04-13T21:49:56.337Z,100811.00
2023-04-13T21:52:24.592Z,100803.53
2023-04-13T21:54:52.922Z,100805.78
2023-04-13T21:57:21.206Z,100806.91
2023-04-13T21:59:49.493Z,100807.25
2023-04-13T22:02:17.812Z,100810.28
2023-04-13T22:04:47.512Z,100809.06
2023-04-13T22:07:16.201Z,100812.88
2023-04-13T22:09:44.529Z,100805.78
2023-04-13T22:12:14.249Z,100802.19
2023-04-13T22:14:42.617Z,100796.34
2023-04-13T22:17:10.859Z,100798.59
2023-04-13T22:19:39.113Z,100795.78
2023-04-13T22:22:08.818Z,100803.78
2023-04-13T22:24:37.070Z,100800.94
2023-04-13T22:27:05.775Z,100796.56
2023-04-13T22:29:34.071Z,100798.00
2023-04-13T22:32:02.308Z,100806.44
2023-04-13T22:34:30.558Z,100804.38
2023-04-13T22:36:59.093Z,100797.00
2023-04-13T22:39:30.758Z,100803.03
2023-04-13T22:42:00.404Z,100802.13
2023-04-13T22:44:34.228Z,100802.34
2023-04-13T22:47:02.913Z,100802.53
2023-04-13T22:49:31.518Z,100807.84
2023-04-13T22:52:00.256Z,100805.00
2023-04-13T22:54:30.029Z,100799.00
2023-04-13T22:56:58.198Z,100806.53
2023-04-13T22:59:26.440Z,100795.16
2023-04-13T23:01:54.767Z,100801.56
2023-04-13T23:04:23.090Z,100808.69
2023-04-13T23:06:51.335Z,100798.16
2023-04-13T23:09:19.548Z,100796.56
2023-04-13T23:11:49.177Z,100797.53
2023-04-13T23:14:19.237Z,100796.28
2023-04-13T23:16:47.619Z,100798.06
2023-04-13T23:19:17.846Z,100802.22
2023-04-13T23:21:46.693Z,100807.94
2023-04-13T23:24:14.859Z,100809.34
2023-04-13T23:26:43.062Z,100812.75
2023-04-13T23:29:12.751Z,100816.06
2023-04-13T23:31:41.077Z,100815.59
2023-04-13T23:34:09.362Z,100817.06
2023-04-13T23:36:37.645Z,100817.34
2023-04-13T23:39:06.006Z,100819.94
2023-04-13T23:41:34.312Z,100813.00
2023-04-13T23:44:02.760Z,100813.63
2023-04-13T23:46:33.877Z,100819.16
2023-04-13T23:49:02.373Z,100820.97
2023-04-13T23:51:31.254Z,100820.22
2023-04-13T23:53:59.600Z,100823.28
2023-04-13T23:56:28.300Z,100824.09
2023-04-13T23:58:56.545Z,100822.25
